• Join FlightAware (Why Join?)
  • Login
  • US Flag 
09:16AM EDT


 

Airport Tracker/Info


-or-


 

Live Flight TrackerFlight Track Log ✈ N531QS ✈ 17-Jun-2013 ✈ LEMD / MAD - SPIM / LIM

Flight Track Log - Related Links

Times and Time Zones

All times are in EDT time to prevent confusion due to time zone crossing. See the N531QS flight status page for this flight to view local times or setup timezone preferences in your user account.

Time Position Orientation Groundspeed Altitude Reporting Facility
EDT Latitude Longitude Course Direction KTS MPH feet Rate Location/Type
10:28AM 28.4450 -30.8364 250° West  Level Estimated
10:29AM 28.3719 -30.9525 234° Southwest  Level Estimated
10:30AM 28.2988 -31.0684 234° Southwest  Level Estimated
10:31AM 28.2256 -31.1842 234° Southwest  Level Estimated
10:32AM 28.1522 -31.2998 234° Southwest  Level Estimated
10:33AM 28.0788 -31.4152 234° Southwest  Level Estimated
10:34AM 28.0053 -31.5305 234° Southwest  Level Estimated
10:35AM 27.9317 -31.6456 234° Southwest  Level Estimated
10:36AM 27.8580 -31.7606 234° Southwest  Level Estimated
10:37AM 27.7841 -31.8754 234° Southwest  Level Estimated
10:38AM 27.7103 -31.9900 234° Southwest  Level Estimated
10:39AM 27.6362 -32.1045 234° Southwest  Level Estimated
10:40AM 27.5622 -32.2189 234° Southwest  Level Estimated
10:41AM 27.4880 -32.3331 234° Southwest  Level Estimated
10:42AM 27.4137 -32.4471 234° Southwest  Level Estimated
10:43AM 27.3393 -32.5610 234° Southwest  Level Estimated
10:44AM 27.2649 -32.6747 234° Southwest  Level Estimated
10:45AM 27.1903 -32.7883 234° Southwest  Level Estimated
10:46AM 27.1157 -32.9017 234° Southwest  Level Estimated
10:47AM 27.0409 -33.0150 233° Southwest  Level Estimated
10:48AM 26.9661 -33.1281 233° Southwest  Level Estimated
10:49AM 26.8912 -33.2411 233° Southwest  Level Estimated
10:50AM 26.8162 -33.3539 233° Southwest  Level Estimated
10:51AM 26.7411 -33.4666 233° Southwest  Level Estimated
10:52AM 26.6659 -33.5791 233° Southwest  Level Estimated
10:53AM 26.5906 -33.6915 233° Southwest  Level Estimated
10:54AM 26.5152 -33.8037 233° Southwest  Level Estimated
10:55AM 26.4398 -33.9158 233° Southwest  Level Estimated
10:56AM 26.3643 -34.0277 233° Southwest  Level Estimated
10:57AM 26.2886 -34.1395 233° Southwest  Level Estimated
10:58AM 26.2129 -34.2512 233° Southwest  Level Estimated
10:59AM 26.1371 -34.3627 233° Southwest  Level Estimated
11:00AM 26.0612 -34.4740 233° Southwest  Level Estimated
11:01AM 25.9853 -34.5852 233° Southwest  Level Estimated
11:02AM 25.9092 -34.6963 233° Southwest  Level Estimated
11:03AM 25.8331 -34.8072 233° Southwest  Level Estimated
11:04AM 25.7569 -34.9180 233° Southwest  Level Estimated
11:05AM 25.6805 -35.0286 233° Southwest  Level Estimated
11:06AM 25.6042 -35.1391 233° Southwest  Level Estimated
11:07AM 25.5277 -35.2495 232° Southwest  Level Estimated
11:08AM 25.4511 -35.3597 232° Southwest  Level Estimated
11:09AM 25.3745 -35.4698 232° Southwest  Level Estimated
11:10AM 25.2978 -35.5797 232° Southwest  Level Estimated
11:11AM 25.2210 -35.6895 232° Southwest  Level Estimated
11:12AM 25.1441 -35.7991 232° Southwest  Level Estimated
11:13AM 25.0671 -35.9087 232° Southwest  Level Estimated
11:14AM 24.9901 -36.0180 232° Southwest  Level Estimated
11:15AM 24.9130 -36.1273 232° Southwest  Level Estimated
11:16AM 24.8358 -36.2364 232° Southwest  Level Estimated
11:17AM 24.7585 -36.3454 232° Southwest  Level Estimated
11:18AM 24.6811 -36.4542 232° Southwest  Level Estimated
11:19AM 24.6037 -36.5629 232° Southwest  Level Estimated
11:20AM 24.5262 -36.6715 232° Southwest  Level Estimated
11:21AM 24.4486 -36.7799 232° Southwest  Level Estimated
11:22AM 24.3709 -36.8882 232° Southwest  Level Estimated
11:23AM 24.2932 -36.9964 232° Southwest  Level Estimated
11:24AM 24.2154 -37.1044 232° Southwest  Level Estimated
11:25AM 24.1375 -37.2123 232° Southwest  Level Estimated
11:26AM 24.0595 -37.3201 232° Southwest  Level Estimated
11:27AM 23.9814 -37.4277 232° Southwest  Level Estimated
11:28AM 23.9033 -37.5352 232° Southwest  Level Estimated
11:29AM 23.8251 -37.6426 231° Southwest  Level Estimated
11:30AM 23.7468 -37.7499 231° Southwest  Level Estimated
11:31AM 23.6685 -37.8570 231° Southwest  Level Estimated
11:32AM 23.5901 -37.9640 231° Southwest  Level Estimated
11:33AM 23.5116 -38.0708 231° Southwest  Level Estimated
11:34AM 23.4330 -38.1776 231° Southwest  Level Estimated
11:35AM 23.3544 -38.2842 231° Southwest  Level Estimated
11:36AM 23.2757 -38.3907 231° Southwest  Level Estimated
11:37AM 23.1969 -38.4970 231° Southwest  Level Estimated
11:38AM 23.1180 -38.6032 231° Southwest  Level Estimated
11:39AM 23.0391 -38.7094 231° Southwest  Level Estimated
11:40AM 22.9601 -38.8153 231° Southwest  Level Estimated
11:41AM 22.8810 -38.9212 231° Southwest  Level Estimated
11:42AM 22.8019 -39.0269 231° Southwest  Level Estimated
11:43AM 22.7227 -39.1325 231° Southwest  Level Estimated
11:44AM 22.6434 -39.2380 231° Southwest  Level Estimated
11:45AM 22.5640 -39.3434 231° Southwest  Level Estimated
11:46AM 22.4846 -39.4487 231° Southwest  Level Estimated
11:47AM 22.4051 -39.5538 231° Southwest  Level Estimated
11:48AM 22.3256 -39.6588 231° Southwest  Level Estimated
11:49AM 22.2460 -39.7637 231° Southwest  Level Estimated
11:50AM 22.1663 -39.8685 231° Southwest  Level Estimated
11:51AM 22.0865 -39.9731 231° Southwest  Level Estimated
11:52AM 22.0067 -40.0776 231° Southwest  Level Estimated
11:53AM 21.9268 -40.1820 230° Southwest  Level Estimated
11:54AM 21.8469 -40.2863 230° Southwest  Level Estimated
11:55AM 21.7669 -40.3905 230° Southwest  Level Estimated
11:56AM 21.6868 -40.4946 230° Southwest  Level Estimated
11:57AM 21.6066 -40.5985 230° Southwest  Level Estimated
11:58AM 21.5264 -40.7024 230° Southwest  Level Estimated
11:59AM 21.4462 -40.8061 230° Southwest  Level Estimated
12:00PM 21.3658 -40.9097 230° Southwest  Level Estimated
12:01PM 21.2854 -41.0132 230° Southwest  Level Estimated
12:02PM 21.2050 -41.1166 230° Southwest  Level Estimated
12:03PM 21.1244 -41.2198 230° Southwest  Level Estimated
12:04PM 21.0438 -41.3230 230° Southwest  Level Estimated
12:05PM 20.9632 -41.4260 230° Southwest  Level Estimated
12:06PM 20.8825 -41.5289 230° Southwest  Level Estimated
12:07PM 20.8017 -41.6317 230° Southwest  Level Estimated
12:08PM 20.7209 -41.7345 230° Southwest  Level Estimated
12:09PM 20.6400 -41.8371 230° Southwest  Level Estimated
12:10PM 20.5590 -41.9395 230° Southwest  Level Estimated
12:11PM 20.4780 -42.0419 230° Southwest  Level Estimated
12:12PM 20.3969 -42.1442 230° Southwest  Level Estimated
12:13PM 20.3158 -42.2464 230° Southwest  Level Estimated
12:14PM 20.2346 -42.3484 230° Southwest  Level Estimated
12:15PM 20.1533 -42.4504 230° Southwest  Level Estimated
12:16PM 20.0720 -42.5522 230° Southwest  Level Estimated
12:17PM 19.9905 -42.6541 230° Southwest  Level Estimated
12:18PM 19.9090 -42.7559 230° Southwest  Level Estimated
12:19PM 19.8274 -42.8576 230° Southwest  Level Estimated
12:20PM 19.7457 -42.9591 230° Southwest  Level Estimated
12:21PM 19.6640 -43.0606 229° Southwest  Level Estimated
12:22PM 19.5822 -43.1619 229° Southwest  Level Estimated
12:23PM 19.5004 -43.2632 229° Southwest  Level Estimated
12:24PM 19.4185 -43.3644 229° Southwest  Level Estimated
12:25PM 19.3366 -43.4654 229° Southwest  Level Estimated
12:26PM 19.2546 -43.5664 229° Southwest  Level Estimated
12:27PM 19.1725 -43.6672 229° Southwest  Level Estimated
12:28PM 19.0904 -43.7680 229° Southwest  Level Estimated
12:29PM 19.0082 -43.8686 229° Southwest  Level Estimated
12:30PM 18.9260 -43.9692 229° Southwest  Level Estimated
12:31PM 18.8438 -44.0696 229° Southwest  Level Estimated
12:32PM 18.7614 -44.1700 229° Southwest  Level Estimated
12:33PM 18.6790 -44.2702 229° Southwest  Level Estimated
12:34PM 18.5966 -44.3704 229° Southwest  Level Estimated
12:35PM 18.5141 -44.4704 229° Southwest  Level Estimated
12:36PM 18.4316 -44.5704 229° Southwest  Level Estimated
12:37PM 18.3490 -44.6703 229° Southwest  Level Estimated
12:38PM 18.2664 -44.7700 229° Southwest  Level Estimated
12:39PM 18.1837 -44.8697 229° Southwest  Level Estimated
12:40PM 18.1009 -44.9693 229° Southwest  Level Estimated
12:41PM 18.0181 -45.0688 229° Southwest  Level Estimated
12:42PM 17.9353 -45.1682 229° Southwest  Level Estimated
12:43PM 17.8524 -45.2675 229° Southwest  Level Estimated
12:44PM 17.7694 -45.3667 229° Southwest  Level Estimated
12:45PM 17.6864 -45.4658 229° Southwest  Level Estimated
12:46PM 17.6034 -45.5648 229° Southwest  Level Estimated
12:47PM 17.5203 -45.6638 229° Southwest  Level Estimated
12:48PM 17.4371 -45.7626 229° Southwest  Level Estimated
12:49PM 17.3540 -45.8614 229° Southwest  Level Estimated
12:50PM 17.2707 -45.9600 229° Southwest  Level Estimated
12:51PM 17.1874 -46.0586 229° Southwest  Level Estimated
12:52PM 17.1041 -46.1571 228° Southwest  Level Estimated
12:53PM 17.0207 -46.2555 228° Southwest  Level Estimated
12:54PM 16.9373 -46.3538 228° Southwest  Level Estimated
12:55PM 16.8538 -46.4520 228° Southwest  Level Estimated
12:56PM 16.7703 -46.5502 228° Southwest  Level Estimated
12:57PM 16.6867 -46.6482 228° Southwest  Level Estimated
12:58PM 16.6031 -46.7462 228° Southwest  Level Estimated
12:59PM 16.5194 -46.8441 228° Southwest  Level Estimated
01:00PM 16.4357 -46.9419 228° Southwest  Level Estimated
01:01PM 16.3519 -47.0396 228° Southwest  Level Estimated
01:02PM 16.2681 -47.1372 228° Southwest  Level Estimated
01:03PM 16.1843 -47.2347 228° Southwest  Level Estimated
01:04PM 16.1004 -47.3322 228° Southwest  Level Estimated
01:05PM 16.0165 -47.4296 228° Southwest  Level Estimated
01:06PM 15.9325 -47.5269 228° Southwest  Level Estimated
01:07PM 15.8485 -47.6241 228° Southwest  Level Estimated
01:08PM 15.7644 -47.7212 228° Southwest  Level Estimated
01:09PM 15.6803 -47.8183 228° Southwest  Level Estimated
01:10PM 15.5961 -47.9153 228° Southwest  Level Estimated
01:11PM 15.5119 -48.0121 228° Southwest  Level Estimated
01:12PM 15.4277 -48.1090 228° Southwest  Level Estimated
01:13PM 15.3434 -48.2057 228° Southwest  Level Estimated
01:14PM 15.2591 -48.3024 228° Southwest  Level Estimated
01:15PM 15.1748 -48.3989 228° Southwest  Level Estimated
01:16PM 15.0904 -48.4954 228° Southwest  Level Estimated
01:17PM 15.0059 -48.5919 228° Southwest  Level Estimated
01:18PM 14.9214 -48.6882 228° Southwest  Level Estimated
01:19PM 14.8369 -48.7845 228° Southwest  Level Estimated
01:20PM 14.7524 -48.8807 228° Southwest  Level Estimated
01:21PM 14.6678 -48.9768 228° Southwest  Level Estimated
01:22PM 14.5831 -49.0729 228° Southwest  Level Estimated
01:23PM 14.4984 -49.1689 228° Southwest  Level Estimated
01:24PM 14.4137 -49.2648 228° Southwest  Level Estimated
01:25PM 14.3290 -49.3606 228° Southwest  Level Estimated
01:26PM 14.2442 -49.4564 228° Southwest  Level Estimated
01:27PM 14.1593 -49.5521 228° Southwest  Level Estimated
01:28PM 14.0744 -49.6477 228° Southwest  Level Estimated
01:29PM 13.9895 -49.7432 228° Southwest  Level Estimated
01:30PM 13.9046 -49.8387 227° Southwest  Level Estimated
01:31PM 13.8196 -49.9341 227° Southwest  Level Estimated
01:32PM 13.7346 -50.0294 227° Southwest  Level Estimated
01:33PM 13.6495 -50.1247 227° Southwest  Level Estimated
01:34PM 13.5644 -50.2199 227° Southwest  Level Estimated
01:35PM 13.4793 -50.3150 227° Southwest  Level Estimated
01:36PM 13.3941 -50.4101 227° Southwest  Level Estimated
01:37PM 13.3089 -50.5051 227° Southwest  Level Estimated
01:38PM 13.2237 -50.6000 227° Southwest  Level Estimated
01:39PM 13.1384 -50.6949 227° Southwest  Level Estimated
01:40PM 13.0531 -50.7896 227° Southwest  Level Estimated
01:41PM 12.9678 -50.8844 227° Southwest  Level Estimated
01:42PM 12.8824 -50.9790 227° Southwest  Level Estimated
01:43PM 12.7970 -51.0736 227° Southwest  Level Estimated
01:44PM 12.7115 -51.1682 227° Southwest  Level Estimated
01:45PM 12.6261 -51.2626 227° Southwest  Level Estimated
01:46PM 12.5406 -51.3571 227° Southwest  Level Estimated
01:47PM 12.4550 -51.4514 227° Southwest  Level Estimated
01:48PM 12.3694 -51.5457 227° Southwest  Level Estimated
01:49PM 12.2838 -51.6399 227° Southwest  Level Estimated
01:50PM 12.1982 -51.7341 227° Southwest  Level Estimated
01:51PM 12.1125 -51.8282 227° Southwest  Level Estimated
01:52PM 12.0268 -51.9222 227° Southwest  Level Estimated
01:53PM 11.9411 -52.0162 227° Southwest  Level Estimated
01:54PM 11.8553 -52.1101 227° Southwest  Level Estimated
01:55PM 11.7695 -52.2040 227° Southwest  Level Estimated
01:56PM 11.6837 -52.2978 227° Southwest  Level Estimated
01:57PM 11.5978 -52.3915 227° Southwest  Level Estimated
01:58PM 11.5119 -52.4852 227° Southwest  Level Estimated
01:59PM 11.4260 -52.5788 227° Southwest  Level Estimated
02:00PM 11.3400 -52.6724 227° Southwest  Level Estimated
02:01PM 11.2541 -52.7659 227° Southwest  Level Estimated
02:02PM 11.1681 -52.8594 227° Southwest  Level Estimated
02:03PM 11.0820 -52.9528 227° Southwest  Level Estimated
02:04PM 10.9960 -53.0461 227° Southwest  Level Estimated
02:05PM 10.9099 -53.1394 227° Southwest  Level Estimated
02:06PM 10.8237 -53.2327 227° Southwest  Level Estimated
02:07PM 10.7376 -53.3259 227° Southwest  Level Estimated
02:08PM 10.6514 -53.4190 227° Southwest  Level Estimated
02:09PM 10.5652 -53.5121 227° Southwest  Level Estimated
02:10PM 10.4790 -53.6051 227° Southwest  Level Estimated
02:11PM 10.3927 -53.6981 227° Southwest  Level Estimated
02:12PM 10.3064 -53.7910 227° Southwest  Level Estimated
02:13PM 10.2201 -53.8839 227° Southwest  Level Estimated
02:14PM 10.1338 -53.9767 227° Southwest  Level Estimated
02:15PM 10.0474 -54.0695 227° Southwest  Level Estimated
02:16PM 9.9610 -54.1622 227° Southwest  Level Estimated
02:17PM 9.8746 -54.2549 227° Southwest  Level Estimated
02:18PM 9.7882 -54.3475 227° Southwest  Level Estimated
02:19PM 9.7017 -54.4401 227° Southwest  Level Estimated
02:20PM 9.6152 -54.5327 227° Southwest  Level Estimated
02:21PM 9.5287 -54.6251 227° Southwest  Level Estimated
02:22PM 9.4422 -54.7176 227° Southwest  Level Estimated
02:23PM 9.3556 -54.8100 226° Southwest  Level Estimated
02:24PM 9.2690 -54.9023 226° Southwest  Level Estimated
02:25PM 9.1824 -54.9946 226° Southwest  Level Estimated
02:26PM 9.0958 -55.0869 226° Southwest  Level Estimated
02:27PM 9.0091 -55.1791 226° Southwest  Level Estimated
02:28PM 8.9224 -55.2713 226° Southwest  Level Estimated
02:29PM 8.8357 -55.3634 226° Southwest  Level Estimated
02:30PM 8.7490 -55.4555 226° Southwest  Level Estimated
02:31PM 8.6622 -55.5475 226° Southwest  Level Estimated
02:32PM 8.5755 -55.6395 226° Southwest  Level Estimated
02:33PM 8.4887 -55.7314 226° Southwest  Level Estimated
02:34PM 8.4019 -55.8233 226° Southwest  Level Estimated
02:35PM 8.3150 -55.9152 226° Southwest  Level Estimated
02:36PM 8.2282 -56.0070 226° Southwest  Level Estimated
02:37PM 8.1413 -56.0988 226° Southwest  Level Estimated
02:38PM 8.0544 -56.1906 226° Southwest  Level Estimated
02:39PM 7.9675 -56.2823 226° Southwest  Level Estimated
02:40PM 7.8805 -56.3740 226° Southwest  Level Estimated
02:41PM 7.7936 -56.4656 226° Southwest  Level Estimated
02:42PM 7.7066 -56.5572 226° Southwest  Level Estimated
02:43PM 7.6196 -56.6488 226° Southwest  Level Estimated
02:44PM 7.5326 -56.7403 226° Southwest  Level Estimated
02:45PM 7.4455 -56.8317 226° Southwest  Level Estimated
02:46PM 7.3585 -56.9232 226° Southwest  Level Estimated
02:47PM 7.2714 -57.0146 226° Southwest  Level Estimated
02:48PM 7.1843 -57.1060 226° Southwest  Level Estimated
02:49PM 7.0972 -57.1973 226° Southwest  Level Estimated
02:50PM 7.0101 -57.2886 226° Southwest  Level Estimated
02:51PM 6.9229 -57.3799 226° Southwest  Level Estimated
02:52PM 6.8358 -57.4711 226° Southwest  Level Estimated
02:53PM 6.7486 -57.5623 226° Southwest  Level Estimated
02:54PM 6.6614 -57.6535 226° Southwest  Level Estimated
02:55PM 6.5742 -57.7446 226° Southwest  Level Estimated
02:56PM 6.4870 -57.8358 226° Southwest  Level Estimated
02:57PM 6.3997 -57.9268 226° Southwest  Level Estimated
02:58PM 6.3124 -58.0179 226° Southwest  Level Estimated
02:59PM 6.2252 -58.1089 226° Southwest  Level Estimated
03:00PM 6.1379 -58.1998 226° Southwest  Level Estimated
03:01PM 6.0506 -58.2908 226° Southwest  Level Estimated
03:02PM 5.9633 -58.3817 226° Southwest  Level Estimated
03:03PM 5.8759 -58.4726 226° Southwest  Level Estimated
03:04PM 5.7886 -58.5635 226° Southwest  Level Estimated
03:05PM 5.7012 -58.6543 226° Southwest  Level Estimated
03:06PM 5.6138 -58.7451 226° Southwest  Level Estimated
03:07PM 5.5264 -58.8359 226° Southwest  Level Estimated
03:08PM 5.4390 -58.9267 226° Southwest  Level Estimated
03:09PM 5.3516 -59.0174 226° Southwest  Level Estimated
03:10PM 5.2641 -59.1081 226° Southwest  Level Estimated
03:11PM 5.1767 -59.1988 226° Southwest  Level Estimated
03:12PM 5.0892 -59.2894 226° Southwest  Level Estimated
03:13PM 5.0017 -59.3801 226° Southwest  Level Estimated
03:14PM 4.9143 -59.4707 226° Southwest  Level Estimated
03:15PM 4.8268 -59.5612 226° Southwest  Level Estimated
03:16PM 4.7393 -59.6518 226° Southwest  Level Estimated
03:17PM 4.6517 -59.7423 226° Southwest  Level Estimated
03:18PM 4.5642 -59.8328 226° Southwest  Level Estimated
03:19PM 4.4766 -59.9233 226° Southwest  Level Estimated
03:20PM 4.3891 -60.0138 226° Southwest  Level Estimated
03:21PM 4.3015 -60.1043 226° Southwest  Level Estimated
03:22PM 4.2139 -60.1947 226° Southwest  Level Estimated
03:23PM 4.1263 -60.2851 226° Southwest  Level Estimated
03:24PM 4.0387 -60.3755 226° Southwest  Level Estimated
03:25PM 3.9511 -60.4659 226° Southwest  Level Estimated
03:26PM 3.8635 -60.5562 226° Southwest  Level Estimated
03:27PM 3.7759 -60.6465 226° Southwest  Level Estimated
03:28PM 3.6882 -60.7368 226° Southwest  Level Estimated
03:29PM 3.6006 -60.8271 226° Southwest  Level Estimated
03:30PM 3.5129 -60.9174 226° Southwest  Level Estimated
03:31PM 3.4253 -61.0077 226° Southwest  Level Estimated
03:32PM 3.3376 -61.0979 226° Southwest  Level Estimated
03:33PM 3.2499 -61.1881 226° Southwest  Level Estimated
03:34PM 3.1622 -61.2784 226° Southwest  Level Estimated
03:35PM 3.0745 -61.3685 226° Southwest  Level Estimated
03:36PM 2.9868 -61.4587 226° Southwest  Level Estimated
03:37PM 2.8991 -61.5489 226° Southwest  Level Estimated
03:38PM 2.8114 -61.6390 226° Southwest  Level Estimated
03:39PM 2.7236 -61.7292 226° Southwest  Level Estimated
03:40PM 2.6359 -61.8193 226° Southwest  Level Estimated
03:41PM 2.5482 -61.9094 226° Southwest  Level Estimated
03:42PM 2.4604 -61.9995 226° Southwest  Level Estimated
03:43PM 2.3727 -62.0896 226° Southwest  Level Estimated
03:44PM 2.2849 -62.1797 226° Southwest  Level Estimated
03:45PM 2.1972 -62.2697 226° Southwest  Level Estimated
03:46PM 2.1094 -62.3598 226° Southwest  Level Estimated
03:47PM 2.0216 -62.4498 226° Southwest  Level Estimated
03:48PM 1.9338 -62.5399 226° Southwest  Level Estimated
03:49PM 1.8461 -62.6299 226° Southwest  Level Estimated
03:50PM 1.7583 -62.7199 226° Southwest  Level Estimated
03:51PM 1.6705 -62.8099 226° Southwest  Level Estimated
03:52PM 1.5827 -62.8999 226° Southwest  Level Estimated
03:53PM 1.4949 -62.9899 226° Southwest  Level Estimated
03:54PM 1.4071 -63.0799 226° Southwest  Level Estimated
03:55PM 1.3193 -63.1699 226° Southwest  Level Estimated
03:56PM 1.2314 -63.2599 226° Southwest  Level Estimated
03:57PM 1.1436 -63.3498 226° Southwest  Level Estimated
03:58PM 1.0558 -63.4398 226° Southwest  Level Estimated
03:59PM 0.9680 -63.5298 226° Southwest  Level Estimated
04:00PM 0.8802 -63.6197 226° Southwest  Level Estimated
04:01PM 0.7924 -63.7096 226° Southwest  Level Estimated
04:02PM 0.7045 -63.7996 226° Southwest  Level Estimated
04:03PM 0.6167 -63.8895 226° Southwest  Level Estimated
04:04PM 0.5289 -63.9795 226° Southwest  Level Estimated
04:05PM 0.4410 -64.0694 226° Southwest  Level Estimated
04:06PM 0.3532 -64.1593 226° Southwest  Level Estimated
04:07PM 0.2654 -64.2493 226° Southwest  Level Estimated
04:08PM 0.1776 -64.3392 226° Southwest  Level Estimated
04:09PM 0.0897 -64.4291 226° Southwest  Level Estimated
04:10PM 0.0019 -64.5191 226° Southwest  Level Estimated
04:11PM -0.0859 -64.6090 226° Southwest  Level Estimated
04:12PM -0.1738 -64.6989 226° Southwest  Level Estimated
04:13PM -0.2616 -64.7888 226° Southwest  Level Estimated
04:14PM -0.3494 -64.8788 226° Southwest  Level Estimated
04:15PM -0.4373 -64.9687 226° Southwest  Level Estimated
04:16PM -0.5251 -65.0586 226° Southwest  Level Estimated
04:17PM -0.6129 -65.1486 226° Southwest  Level Estimated
04:18PM -0.7007 -65.2385 226° Southwest  Level Estimated
04:19PM -0.7886 -65.3285 226° Southwest  Level Estimated
04:20PM -0.8764 -65.4184 226° Southwest  Level Estimated
04:21PM -0.9642 -65.5083 226° Southwest  Level Estimated
04:22PM -1.0520 -65.5983 226° Southwest  Level Estimated
04:23PM -1.1399 -65.6883 226° Southwest  Level Estimated
04:24PM -1.2277 -65.7782 226° Southwest  Level Estimated
04:25PM -1.3155 -65.8682 226° Southwest  Level Estimated
04:26PM -1.4033 -65.9582 226° Southwest  Level Estimated
04:27PM -1.4911 -66.0482 226° Southwest  Level Estimated
04:28PM -1.5789 -66.1382 226° Southwest  Level Estimated
04:29PM -1.6667 -66.2282 226° Southwest  Level Estimated
04:30PM -1.7545 -66.3182 226° Southwest  Level Estimated
04:31PM -1.8423 -66.4082 226° Southwest  Level Estimated
04:32PM -1.9301 -66.4982 226° Southwest  Level Estimated
04:33PM -2.0179 -66.5882 226° Southwest  Level Estimated
04:34PM -2.1056 -66.6783 226° Southwest  Level Estimated
04:35PM -2.1934 -66.7683 226° Southwest  Level Estimated
04:36PM -2.2812 -66.8584 226° Southwest  Level Estimated
04:37PM -2.3689 -66.9485 226° Southwest  Level Estimated
04:38PM -2.4567 -67.0386 226° Southwest  Level Estimated
04:39PM -2.5444 -67.1287 226° Southwest  Level Estimated
04:40PM -2.6322 -67.2188 226° Southwest  Level Estimated
04:41PM -2.7199 -67.3089 226° Southwest  Level Estimated
04:42PM -2.8076 -67.3990 226° Southwest  Level Estimated
04:43PM -2.8953 -67.4892 226° Southwest  Level Estimated
04:44PM -2.9831 -67.5794 226° Southwest  Level Estimated
04:45PM -3.0708 -67.6695 226° Southwest  Level Estimated
04:46PM -3.1585 -67.7597 226° Southwest  Level Estimated
04:47PM -3.2462 -67.8499 226° Southwest  Level Estimated
04:48PM -3.3338 -67.9401 226° Southwest  Level Estimated
04:49PM -3.4215 -68.0304 226° Southwest  Level Estimated
04:50PM -3.5092 -68.1207 226° Southwest  Level Estimated
04:51PM -3.5968 -68.2109 226° Southwest  Level Estimated
04:52PM -3.6845 -68.3012 226° Southwest  Level Estimated
04:53PM -3.7721 -68.3915 226° Southwest  Level Estimated
04:54PM -3.8598 -68.4818 226° Southwest  Level Estimated
04:55PM -3.9474 -68.5722 226° Southwest  Level Estimated
04:56PM -4.0350 -68.6626 226° Southwest  Level Estimated
04:57PM -4.1226 -68.7530 226° Southwest  Level Estimated
04:58PM -4.2102 -68.8434 226° Southwest  Level Estimated
04:59PM -4.2978 -68.9338 226° Southwest  Level Estimated
05:00PM -4.3853 -69.0242 226° Southwest  Level Estimated
05:01PM -4.4729 -69.1147 226° Southwest  Level Estimated
05:02PM -4.5604 -69.2052 226° Southwest  Level Estimated
05:03PM -4.6480 -69.2957 226° Southwest  Level Estimated
05:04PM -4.7355 -69.3862 226° Southwest  Level Estimated
05:05PM -4.8230 -69.4768 226° Southwest  Level Estimated
05:06PM -4.9105 -69.5674 226° Southwest  Level Estimated
05:07PM -4.9980 -69.6580 226° Southwest  Level Estimated
05:08PM -5.0855 -69.7486 226° Southwest  Level Estimated
05:09PM -5.1729 -69.8392 226° Southwest  Level Estimated
05:10PM -5.2604 -69.9299 226° Southwest  Level Estimated
05:11PM -5.3478 -70.0206 226° Southwest  Level Estimated
05:12PM -5.4352 -70.1114 226° Southwest  Level Estimated
05:13PM -5.5227 -70.2021 226° Southwest  Level Estimated
05:14PM -5.6101 -70.2929 226° Southwest  Level Estimated
05:15PM -5.6974 -70.3837 226° Southwest  Level Estimated
05:16PM -5.7848 -70.4745 226° Southwest  Level Estimated
05:17PM -5.8722 -70.5654 226° Southwest  Level Estimated
05:18PM -5.9595 -70.6563 226° Southwest  Level Estimated
05:19PM -6.0468 -70.7472 226° Southwest  Level Estimated
05:20PM -6.1341 -70.8382 226° Southwest  Level Estimated
05:21PM -6.2214 -70.9291 226° Southwest  Level Estimated
05:22PM -6.3087 -71.0201 226° Southwest  Level Estimated
05:23PM -6.3960 -71.1112 226° Southwest  Level Estimated
05:24PM -6.4832 -71.2023 226° Southwest  Level Estimated
05:25PM -6.5704 -71.2934 226° Southwest  Level Estimated
05:26PM -6.6576 -71.3845 226° Southwest  Level Estimated
05:27PM -6.7449 -71.4757 226° Southwest  Level Estimated
05:28PM -6.8320 -71.5669 226° Southwest  Level Estimated
05:29PM -6.9192 -71.6581 226° Southwest  Level Estimated
05:30PM -7.0063 -71.7494 226° Southwest  Level Estimated
05:31PM -7.0935 -71.8407 226° Southwest  Level Estimated
05:32PM -7.1806 -71.9320 226° Southwest  Level Estimated
05:33PM -7.2677 -72.0234 226° Southwest  Level Estimated
05:34PM -7.3547 -72.1148 226° Southwest  Level Estimated
05:35PM -7.4418 -72.2062 226° Southwest  Level Estimated
05:36PM -7.5288 -72.2977 226° Southwest  Level Estimated
05:37PM -7.6159 -72.3892 226° Southwest  Level Estimated
05:38PM -7.7029 -72.4808 226° Southwest  Level Estimated
05:39PM -7.7898 -72.5724 226° Southwest  Level Estimated
05:40PM -7.8768 -72.6640 226° Southwest  Level Estimated
05:41PM -7.9637 -72.7557 226° Southwest  Level Estimated
05:42PM -8.0507 -72.8474 226° Southwest  Level Estimated
05:43PM -8.1376 -72.9391 226° Southwest  Level Estimated
05:44PM -8.2244 -73.0309 226° Southwest  Level Estimated
05:45PM -8.3113 -73.1228 226° Southwest  Level Estimated
05:46PM -8.3981 -73.2146 226° Southwest  Level Estimated
05:47PM -8.4850 -73.3065 226° Southwest  Level Estimated
05:48PM -8.5717 -73.3985 226° Southwest  Level Estimated
05:49PM -8.6585 -73.4905 226° Southwest  Level Estimated
05:50PM -8.7453 -73.5825 226° Southwest  Level Estimated
05:51PM -8.8320 -73.6746 226° Southwest  Level Estimated
05:52PM -8.9187 -73.7667 226° Southwest  Level Estimated
05:53PM -9.0054 -73.8589 226° Southwest  Level Estimated
05:54PM -9.0920 -73.9511 226° Southwest  Level Estimated
05:55PM -9.1787 -74.0433 226° Southwest  Level Estimated
05:56PM -9.2653 -74.1356 226° Southwest  Level Estimated
05:57PM -9.3519 -74.2280 226° Southwest  Level Estimated
05:58PM -9.4384 -74.3204 226° Southwest  Level Estimated
05:59PM -9.5250 -74.4128 226° Southwest  Level Estimated
06:00PM -9.6115 -74.5053 227° Southwest  Level Estimated
06:01PM -9.6980 -74.5978 227° Southwest  Level Estimated
06:02PM -9.7845 -74.6904 227° Southwest  Level Estimated
06:03PM -9.8709 -74.7830 227° Southwest  Level Estimated
06:04PM -9.9573 -74.8757 227° Southwest  Level Estimated
06:05PM -10.0437 -74.9684 227° Southwest  Level Estimated
06:06PM -10.1301 -75.0612 227° Southwest  Level Estimated
06:07PM -10.2164 -75.1540 227° Southwest  Level Estimated
06:08PM -10.3027 -75.2469 227° Southwest  Level Estimated
06:09PM -10.3890 -75.3398 227° Southwest  Level Estimated
06:10PM -10.4753 -75.4328 227° Southwest  Level Estimated
06:11PM -10.5615 -75.5258 227° Southwest  Level Estimated
06:12PM -10.6477 -75.6189 227° Southwest  Level Estimated
06:13PM -10.7339 -75.7120 227° Southwest  Level Estimated
06:14PM -10.8201 -75.8052 227° Southwest  Level Estimated
06:15PM -10.9062 -75.8985 227° Southwest  Level Estimated
06:16PM -10.9923 -75.9917 227° Southwest  Level Estimated
06:17PM -11.0783 -76.0851 227° Southwest  Level Estimated
06:18PM -11.1644 -76.1785 227° Southwest  Level Estimated
06:19PM -11.2504 -76.2719 227° Southwest  Level Estimated
06:20PM -11.3364 -76.3655 227° Southwest  Level Estimated
06:21PM -11.4223 -76.4590 227° Southwest  Level Estimated
06:22PM -11.5082 -76.5527 227° Southwest  Level Estimated
06:23PM -11.5941 -76.6464 227° Southwest  Level Estimated
06:24PM -11.6800 -76.7401 227° Southwest  Level Estimated
06:25PM -11.7658 -76.8339 227° Southwest  Level Estimated
06:26PM -11.8516 -76.9278 227° Southwest  Level Estimated
06:27PM -11.9374 -77.0217 227° Southwest  Level Estimated
06:28PM -12.0219 -77.1143 227° Southwest  Level Estimated
06:29PM -12.0219 -77.1143 44° Northeast  Level Estimated
06:30PM -12.0219 -77.1143 44° Northeast  Level Estimated
06:31PM -12.0219 -77.1143 44° Northeast  Level Estimated
06:32PM -12.0219 -77.1143 44° Northeast  Level Estimated
06:33PM -12.0219 -77.1143 44° Northeast  Level Estimated
06:34PM -12.0219 -77.1143 44° Northeast  Level Estimated
06:35PM -12.0219 -77.1143 44° Northeast  Level Estimated
06:36PM -12.0219 -77.1143 44° Northeast  Level Estimated
06:37PM -12.0219 -77.1143 44° Northeast  Level Estimated
06:38PM -12.0219 -77.1143 44° Northeast  Level Estimated
06:39PM -12.0219 -77.1143 44° Northeast  Level Estimated
06:40PM -12.0219 -77.1143 44° Northeast  Level Estimated
06:41PM -12.0219 -77.1143 44° Northeast  Level Estimated
06:42PM -12.0219 -77.1143 44° Northeast  Level Estimated
06:43PM -12.0219 -77.1143 44° Northeast  Level Estimated
06:44PM -12.0219 -77.1143 44° Northeast  Level Estimated